Time;durP1;ratioP1;P1;durP2;ratioP2;P2;SDS_P1;SDS_P2;PMS_P1;PMS_P2;Temp;Humidity;BMP_temperature;BMP_pressure;BME280_temperature;BME280_humidity;BME280_pressure;Samples;Min_cycle;Max_cycle;Signal;HPM_P1;HPM_P2
2023/04/03 00:02:21;;;;;;;5.28;2.47;;;;;;;;;;5075004;28;20108;-60
2023/04/03 00:04:47;;;;;;;3.00;2.42;;;;;;;;;;5074363;28;20021;-60
2023/04/03 00:07:14;;;;;;;3.97;1.83;;;;;;;;;;5074405;28;20025;-60
2023/04/03 00:09:40;;;;;;;2.03;1.50;;;;;;;;;;5072695;28;20028;-60
2023/04/03 00:12:06;;;;;;;3.70;2.45;;;;;;;;;;5075064;28;20025;-60
2023/04/03 00:14:32;;;;;;;2.00;1.50;;;;;;;;;;5074461;28;20106;-60
2023/04/03 00:16:58;;;;;;;3.03;1.73;;;;;;;;;;5074218;28;20409;-60
2023/04/03 00:19:24;;;;;;;2.35;1.90;;;;;;;;;;5073943;28;20024;-60
2023/04/03 00:21:50;;;;;;;2.50;1.70;;;;;;;;;;5074427;28;20344;-60
2023/04/03 00:24:16;;;;;;;3.58;1.83;;;;;;;;;;5074365;28;20016;-60
2023/04/03 00:26:42;;;;;;;1.45;1.08;;;;;;;;;;5074712;28;20046;-61
2023/04/03 00:29:08;;;;;;;2.90;1.75;;;;;;;;;;5073660;28;20449;-60
2023/04/03 00:31:34;;;;;;;3.53;1.95;;;;;;;;;;5073976;28;20043;-60
2023/04/03 00:34:00;;;;;;;4.82;2.58;;;;;;;;;;5074509;28;20038;-60
2023/04/03 00:36:26;;;;;;;1.90;1.60;;;;;;;;;;5073801;28;20025;-60
2023/04/03 00:38:52;;;;;;;2.58;1.52;;;;;;;;;;5073915;28;20433;-60
2023/04/03 00:41:18;;;;;;;2.63;1.92;;;;;;;;;;5074292;28;20031;-60
2023/04/03 00:43:44;;;;;;;3.38;2.00;;;;;;;;;;5073509;28;20025;-60
2023/04/03 00:46:10;;;;;;;1.95;1.55;;;;;;;;;;5073122;28;20190;-60
2023/04/03 00:48:39;;;;;;;3.03;1.95;;;;;;;;;;5072453;28;20123;-60
2023/04/03 00:51:07;;;;;;;2.72;1.65;;;;;;;;;;5074243;28;20453;-60
2023/04/03 00:53:36;;;;;;;4.30;1.63;;;;;;;;;;5073775;28;20064;-60
2023/04/03 00:56:02;;;;;;;3.38;2.15;;;;;;;;;;5073722;28;20024;-60
2023/04/03 00:58:36;;;;;;;2.40;1.70;;;;;;;;;;5073357;28;20036;-60
2023/04/03 01:01:05;;;;;;;3.28;2.05;;;;;;;;;;5073998;28;20104;-60
2023/04/03 01:03:31;;;;;;;3.38;2.05;;;;;;;;;;5074137;28;20028;-60
2023/04/03 01:05:58;;;;;;;2.55;1.75;;;;;;;;;;5074198;28;20477;-60
2023/04/03 01:08:24;;;;;;;5.18;2.08;;;;;;;;;;5073735;28;20035;-60
2023/04/03 01:10:50;;;;;;;2.25;1.95;;;;;;;;;;5073630;28;20032;-60
2023/04/03 01:13:24;;;;;;;2.72;1.58;;;;;;;;;;5073540;28;20020;-60
2023/04/03 01:15:51;;;;;;;2.08;1.60;;;;;;;;;;5073940;28;20051;-60
2023/04/03 01:18:16;;;;;;;3.10;1.88;;;;;;;;;;5077478;28;20055;-60
2023/04/03 01:21:01;;;;;;;2.47;1.90;;;;;;;;;;5078118;28;20103;-61
2023/04/03 01:23:33;;;;;;;5.72;2.13;;;;;;;;;;5077425;28;20068;-61
2023/04/03 01:25:59;;;;;;;3.70;2.38;;;;;;;;;;5077984;28;20028;-60
2023/04/03 01:28:26;;;;;;;2.72;1.92;;;;;;;;;;5077264;28;20055;-60
2023/04/03 01:31:07;;;;;;;2.20;1.60;;;;;;;;;;5077045;28;20025;-60
2023/04/03 01:33:33;;;;;;;3.10;2.22;;;;;;;;;;5077254;28;20027;-60
2023/04/03 01:35:59;;;;;;;3.40;1.92;;;;;;;;;;5077608;28;20028;-60
2023/04/03 01:38:25;;;;;;;3.47;2.35;;;;;;;;;;5077449;28;20446;-60
2023/04/03 01:40:51;;;;;;;2.10;1.70;;;;;;;;;;5077200;28;20032;-60
2023/04/03 01:43:18;;;;;;;3.47;2.35;;;;;;;;;;5077085;28;20024;-60
2023/04/03 01:45:44;;;;;;;3.38;1.55;;;;;;;;;;5077378;28;20074;-60
2023/04/03 01:48:09;;;;;;;2.70;1.80;;;;;;;;;;5077125;28;20127;-61
2023/04/03 01:50:35;;;;;;;2.60;1.60;;;;;;;;;;5077009;28;20466;-60
2023/04/03 01:53:01;;;;;;;4.53;1.67;;;;;;;;;;5076422;28;20439;-60
2023/04/03 01:55:27;;;;;;;5.07;1.65;;;;;;;;;;5076352;28;20020;-60
2023/04/03 01:57:53;;;;;;;2.17;1.45;;;;;;;;;;5077293;28;20039;-60
2023/04/03 02:00:19;;;;;;;5.47;1.50;;;;;;;;;;5076694;28;20030;-60
2023/04/03 02:02:45;;;;;;;2.50;1.85;;;;;;;;;;5076709;28;20103;-60
2023/04/03 02:05:11;;;;;;;3.25;2.35;;;;;;;;;;5077111;28;20020;-60
2023/04/03 02:07:37;;;;;;;3.20;1.67;;;;;;;;;;5076718;28;20371;-61
2023/04/03 02:10:03;;;;;;;3.80;2.13;;;;;;;;;;5076580;28;20119;-60
2023/04/03 02:12:29;;;;;;;2.33;1.63;;;;;;;;;;5076437;28;20374;-60
2023/04/03 02:14:55;;;;;;;2.75;1.85;;;;;;;;;;5076613;28;20041;-60
2023/04/03 02:17:21;;;;;;;2.45;1.35;;;;;;;;;;5076380;28;20032;-60
2023/04/03 02:19:47;;;;;;;1.90;1.38;;;;;;;;;;5076428;28;20478;-60
2023/04/03 02:22:13;;;;;;;2.47;1.55;;;;;;;;;;5076637;28;20028;-60
2023/04/03 02:24:40;;;;;;;6.30;2.10;;;;;;;;;;5076558;28;20031;-60
2023/04/03 02:27:06;;;;;;;1.88;1.60;;;;;;;;;;5076333;28;20024;-60
2023/04/03 02:29:32;;;;;;;3.50;2.13;;;;;;;;;;5076346;28;20028;-60
2023/04/03 02:31:58;;;;;;;3.25;2.47;;;;;;;;;;5076074;28;20051;-60
2023/04/03 02:34:24;;;;;;;3.40;2.40;;;;;;;;;;5076326;28;20205;-60
2023/04/03 02:36:50;;;;;;;2.60;2.03;;;;;;;;;;5076586;28;20028;-60
2023/04/03 02:39:16;;;;;;;5.68;2.17;;;;;;;;;;5076781;28;20029;-60
2023/04/03 02:41:42;;;;;;;3.55;1.75;;;;;;;;;;5076083;28;20043;-60
2023/04/03 02:44:09;;;;;;;2.97;2.13;;;;;;;;;;5075938;28;20028;-60
2023/04/03 02:46:35;;;;;;;7.18;2.95;;;;;;;;;;5076441;28;20021;-60
2023/04/03 02:49:01;;;;;;;2.70;2.13;;;;;;;;;;5075737;28;20032;-60
2023/04/03 02:51:27;;;;;;;2.80;2.13;;;;;;;;;;5075856;28;20085;-60
2023/04/03 02:53:53;;;;;;;2.50;1.60;;;;;;;;;;5076260;28;20035;-60
2023/04/03 02:56:20;;;;;;;2.88;2.17;;;;;;;;;;5076112;28;20032;-60
2023/04/03 02:58:46;;;;;;;2.55;2.00;;;;;;;;;;5075684;28;20118;-60
2023/04/03 03:01:12;;;;;;;3.70;2.03;;;;;;;;;;5075628;28;20075;-60
2023/04/03 03:03:38;;;;;;;2.85;2.08;;;;;;;;;;5075538;28;20074;-60
2023/04/03 03:06:05;;;;;;;2.40;1.45;;;;;;;;;;5075317;28;20056;-60
2023/04/03 03:08:31;;;;;;;3.95;2.05;;;;;;;;;;5075614;28;20032;-61
2023/04/03 03:10:57;;;;;;;3.15;1.85;;;;;;;;;;5075933;28;20115;-61
2023/04/03 03:13:23;;;;;;;3.00;2.13;;;;;;;;;;5075404;28;20431;-60
2023/04/03 03:15:49;;;;;;;2.85;2.08;;;;;;;;;;5076451;28;20366;-61
2023/04/03 03:18:15;;;;;;;2.53;2.03;;;;;;;;;;5075833;28;20064;-60
2023/04/03 03:20:41;;;;;;;1.75;1.20;;;;;;;;;;5075318;28;20439;-60
2023/04/03 03:23:07;;;;;;;5.22;2.38;;;;;;;;;;5075842;28;20347;-60
2023/04/03 03:25:33;;;;;;;3.15;1.55;;;;;;;;;;5075535;28;20024;-60
2023/04/03 03:27:59;;;;;;;3.25;1.88;;;;;;;;;;5074690;28;20078;-60
2023/04/03 03:30:25;;;;;;;2.17;1.80;;;;;;;;;;5075296;28;20024;-60
2023/04/03 03:32:51;;;;;;;2.65;2.40;;;;;;;;;;5075562;28;20032;-60
2023/04/03 03:35:17;;;;;;;2.53;1.73;;;;;;;;;;5075511;28;20025;-60
2023/04/03 03:37:43;;;;;;;5.75;2.22;;;;;;;;;;5075182;28;20032;-60
2023/04/03 03:40:11;;;;;;;2.95;2.08;;;;;;;;;;5074759;28;20035;-60
2023/04/03 03:42:36;;;;;;;2.40;1.60;;;;;;;;;;5075178;28;20028;-60
2023/04/03 03:45:03;;;;;;;1.80;1.27;;;;;;;;;;5075454;28;20043;-60
2023/04/03 03:47:29;;;;;;;2.50;1.55;;;;;;;;;;5074699;28;20466;-60
2023/04/03 03:49:55;;;;;;;2.67;2.00;;;;;;;;;;5074636;28;20086;-60
2023/04/03 03:52:21;;;;;;;3.90;1.95;;;;;;;;;;5075005;28;20033;-60
2023/04/03 03:54:47;;;;;;;4.50;1.75;;;;;;;;;;5074367;28;20028;-60
2023/04/03 03:57:13;;;;;;;3.05;1.92;;;;;;;;;;5074850;28;20025;-60
2023/04/03 03:59:41;;;;;;;2.40;1.80;;;;;;;;;;5074594;28;20035;-60
2023/04/03 04:02:07;;;;;;;3.08;1.67;;;;;;;;;;5074403;28;20131;-60
2023/04/03 04:04:33;;;;;;;2.15;1.60;;;;;;;;;;5074422;28;20371;-60
2023/04/03 04:07:00;;;;;;;3.30;1.90;;;;;;;;;;5075042;28;20025;-60
2023/04/03 04:09:26;;;;;;;2.58;2.10;;;;;;;;;;5074179;28;20037;-60
2023/04/03 04:11:52;;;;;;;2.33;1.58;;;;;;;;;;5074636;28;20085;-61
2023/04/03 04:14:20;;;;;;;3.58;2.08;;;;;;;;;;5074503;28;20366;-60
2023/04/03 04:16:46;;;;;;;1.90;1.38;;;;;;;;;;5074247;28;20034;-60
2023/04/03 04:19:12;;;;;;;2.25;1.70;;;;;;;;;;5074268;28;20522;-60
2023/04/03 04:21:39;;;;;;;4.07;2.50;;;;;;;;;;5074208;28;20028;-60
2023/04/03 04:24:05;;;;;;;3.92;2.55;;;;;;;;;;5074178;28;20024;-60
2023/04/03 04:26:31;;;;;;;2.15;1.52;;;;;;;;;;5074135;28;20090;-60
2023/04/03 04:28:57;;;;;;;2.20;1.83;;;;;;;;;;5074351;28;20382;-60
2023/04/03 04:31:23;;;;;;;3.88;2.33;;;;;;;;;;5074888;28;20032;-60
2023/04/03 04:33:49;;;;;;;2.85;2.10;;;;;;;;;;5074074;28;20027;-60
2023/04/03 04:36:15;;;;;;;3.33;2.42;;;;;;;;;;5074156;28;20024;-60
2023/04/03 04:38:41;;;;;;;2.38;1.60;;;;;;;;;;5074766;28;20029;-60
2023/04/03 04:41:07;;;;;;;1.65;1.17;;;;;;;;;;5074258;28;20024;-60
2023/04/03 04:43:34;;;;;;;2.67;1.70;;;;;;;;;;5074373;28;20033;-60
2023/04/03 04:46:01;;;;;;;2.58;1.90;;;;;;;;;;5073510;28;20017;-60
2023/04/03 04:48:27;;;;;;;2.17;1.67;;;;;;;;;;5074000;28;20370;-60
2023/04/03 04:50:53;;;;;;;2.38;1.60;;;;;;;;;;5073837;28;20158;-60
2023/04/03 04:53:19;;;;;;;2.10;1.67;;;;;;;;;;5074343;28;20024;-60
2023/04/03 04:55:45;;;;;;;3.25;1.88;;;;;;;;;;5074107;28;20024;-60
2023/04/03 04:58:10;;;;;;;2.03;1.83;;;;;;;;;;5073747;28;20039;-60
2023/04/03 05:00:36;;;;;;;3.92;2.25;;;;;;;;;;5073447;28;20021;-60
2023/04/03 05:03:02;;;;;;;1.85;1.52;;;;;;;;;;5073523;28;20020;-60
2023/04/03 05:05:28;;;;;;;2.00;1.70;;;;;;;;;;5073792;28;20071;-60
2023/04/03 05:07:54;;;;;;;2.65;1.63;;;;;;;;;;5073762;28;20039;-60
2023/04/03 05:10:20;;;;;;;3.47;2.30;;;;;;;;;;5073813;28;20024;-60
2023/04/03 05:12:46;;;;;;;1.98;1.30;;;;;;;;;;5073311;28;20032;-60
2023/04/03 05:15:12;;;;;;;4.18;2.20;;;;;;;;;;5073041;28;20049;-60
2023/04/03 05:17:38;;;;;;;1.48;1.10;;;;;;;;;;5073545;28;20032;-60
2023/04/03 05:20:05;;;;;;;2.38;1.50;;;;;;;;;;5073395;28;20109;-60
2023/04/03 05:22:31;;;;;;;3.38;1.75;;;;;;;;;;5073386;28;20024;-60
2023/04/03 05:24:57;;;;;;;2.75;1.77;;;;;;;;;;5073356;28;20025;-60
2023/04/03 05:27:24;;;;;;;2.00;1.00;;;;;;;;;;5073194;28;20032;-60
2023/04/03 05:29:50;;;;;;;3.42;1.98;;;;;;;;;;5073056;28;20028;-60
2023/04/03 05:32:16;;;;;;;2.40;1.67;;;;;;;;;;5073225;28;20056;-60
2023/04/03 05:34:42;;;;;;;2.55;1.60;;;;;;;;;;5073555;28;20348;-60
2023/04/03 05:37:08;;;;;;;3.08;1.75;;;;;;;;;;5073357;28;20039;-60
2023/04/03 05:39:34;;;;;;;3.58;2.05;;;;;;;;;;5073447;28;20040;-60
2023/04/03 05:42:00;;;;;;;1.90;1.35;;;;;;;;;;5073589;28;20078;-60
2023/04/03 05:44:26;;;;;;;9.75;2.35;;;;;;;;;;5073420;28;20454;-60
2023/04/03 05:46:52;;;;;;;1.40;1.10;;;;;;;;;;5072375;28;20024;-60
2023/04/03 05:49:18;;;;;;;2.75;1.63;;;;;;;;;;5072858;28;20416;-60
2023/04/03 05:51:44;;;;;;;2.30;1.65;;;;;;;;;;5072988;28;20033;-60
2023/04/03 05:54:22;;;;;;;1.83;1.35;;;;;;;;;;5072903;28;20378;-60
2023/04/03 05:56:49;;;;;;;1.42;0.90;;;;;;;;;;5072894;28;20028;-60
2023/04/03 05:59:15;;;;;;;1.88;1.38;;;;;;;;;;5073150;28;20033;-59
2023/04/03 06:01:41;;;;;;;3.80;2.13;;;;;;;;;;5073406;28;20105;-60
2023/04/03 06:04:10;;;;;;;2.88;1.60;;;;;;;;;;5074838;28;20036;-60
2023/04/03 06:06:53;;;;;;;1.92;1.30;;;;;;;;;;5076654;28;20025;-60
2023/04/03 06:09:20;;;;;;;2.08;1.42;;;;;;;;;;5076787;28;20033;-60
2023/04/03 06:11:46;;;;;;;1.80;1.52;;;;;;;;;;5076722;28;20044;-60
2023/04/03 06:14:12;;;;;;;2.63;1.80;;;;;;;;;;5076284;28;20045;-60
2023/04/03 06:16:39;;;;;;;1.98;1.38;;;;;;;;;;5076584;28;20356;-60
2023/04/03 06:19:05;;;;;;;5.68;2.08;;;;;;;;;;5076441;28;20020;-60
2023/04/03 06:21:31;;;;;;;1.52;1.08;;;;;;;;;;5075180;28;20035;-60
2023/04/03 06:23:57;;;;;;;1.80;1.20;;;;;;;;;;5076223;28;20021;-60
2023/04/03 06:26:23;;;;;;;3.22;1.65;;;;;;;;;;5076715;28;20477;-60
2023/04/03 06:28:49;;;;;;;3.38;1.67;;;;;;;;;;5076162;28;20036;-60
2023/04/03 06:31:16;;;;;;;2.63;1.83;;;;;;;;;;5076141;28;20025;-60
2023/04/03 06:33:42;;;;;;;1.73;1.05;;;;;;;;;;5076713;28;20036;-61
2023/04/03 06:36:08;;;;;;;2.88;1.75;;;;;;;;;;5076464;28;20021;-60
2023/04/03 06:38:34;;;;;;;1.75;1.25;;;;;;;;;;5076120;28;20381;-60
2023/04/03 06:41:00;;;;;;;2.10;1.35;;;;;;;;;;5076630;28;20035;-60
2023/04/03 06:43:26;;;;;;;4.43;2.08;;;;;;;;;;5076358;28;20119;-60
2023/04/03 06:45:52;;;;;;;1.88;1.20;;;;;;;;;;5076686;28;20024;-60
2023/04/03 06:48:18;;;;;;;2.72;1.90;;;;;;;;;;5076454;28;20389;-60
2023/04/03 06:50:44;;;;;;;2.80;1.63;;;;;;;;;;5076197;28;20025;-60
2023/04/03 06:53:11;;;;;;;2.05;1.33;;;;;;;;;;5075852;28;20028;-60
2023/04/03 06:55:37;;;;;;;2.45;1.67;;;;;;;;;;5076488;28;20024;-59
2023/04/03 06:58:04;;;;;;;1.48;1.00;;;;;;;;;;5075907;28;20170;-60
2023/04/03 07:00:30;;;;;;;3.72;1.58;;;;;;;;;;5075730;28;20028;-60
2023/04/03 07:02:57;;;;;;;2.38;1.83;;;;;;;;;;5075561;28;20056;-60
2023/04/03 07:05:23;;;;;;;1.30;1.00;;;;;;;;;;5076137;28;20036;-59
2023/04/03 07:07:50;;;;;;;3.17;1.40;;;;;;;;;;5076311;28;20071;-60
2023/04/03 07:10:16;;;;;;;2.42;1.48;;;;;;;;;;5076047;28;20025;-59
2023/04/03 07:12:42;;;;;;;2.40;1.75;;;;;;;;;;5075313;28;20028;-60
2023/04/03 07:15:08;;;;;;;2.47;1.95;;;;;;;;;;5074700;28;20072;-60
2023/04/03 07:17:35;;;;;;;5.00;2.13;;;;;;;;;;5075108;28;20056;-60
2023/04/03 07:20:01;;;;;;;3.80;2.05;;;;;;;;;;5076041;28;20032;-60
2023/04/03 07:22:28;;;;;;;4.03;2.40;;;;;;;;;;5075254;28;20082;-60
2023/04/03 07:24:53;;;;;;;2.75;1.75;;;;;;;;;;5074129;28;20173;-60
2023/04/03 07:27:19;;;;;;;1.92;1.52;;;;;;;;;;5075051;28;20465;-60
2023/04/03 07:29:47;;;;;;;1.35;0.95;;;;;;;;;;5075656;28;20112;-60
2023/04/03 07:32:13;;;;;;;2.47;1.45;;;;;;;;;;5075194;28;20039;-60
2023/04/03 07:34:39;;;;;;;1.80;1.15;;;;;;;;;;5075894;28;20355;-60
2023/04/03 07:37:06;;;;;;;1.50;0.82;;;;;;;;;;5075026;28;20024;-60
2023/04/03 07:39:32;;;;;;;3.53;1.85;;;;;;;;;;5074974;28;20032;-59
2023/04/03 07:41:58;;;;;;;1.52;1.15;;;;;;;;;;5075392;28;20450;-60
2023/04/03 07:44:25;;;;;;;3.10;1.58;;;;;;;;;;5074740;28;20046;-60
2023/04/03 07:46:51;;;;;;;2.88;1.73;;;;;;;;;;5075382;28;20358;-60
2023/04/03 07:49:18;;;;;;;10.70;2.28;;;;;;;;;;5074726;28;20032;-60
2023/04/03 07:51:44;;;;;;;1.88;1.52;;;;;;;;;;5074753;28;20029;-60
2023/04/03 07:54:10;;;;;;;2.30;1.33;;;;;;;;;;5074699;28;20028;-60
2023/04/03 07:56:36;;;;;;;2.25;1.55;;;;;;;;;;5075227;28;20351;-60
2023/04/03 07:59:02;;;;;;;2.28;1.30;;;;;;;;;;5074923;28;20033;-59
2023/04/03 08:01:28;;;;;;;2.72;1.80;;;;;;;;;;5074532;28;20028;-60
2023/04/03 08:03:54;;;;;;;2.17;1.48;;;;;;;;;;5074511;28;20033;-60
2023/04/03 08:06:20;;;;;;;4.22;1.10;;;;;;;;;;5074505;28;20115;-60
2023/04/03 08:08:47;;;;;;;1.55;1.20;;;;;;;;;;5074365;28;20037;-60
2023/04/03 08:11:12;;;;;;;1.70;1.27;;;;;;;;;;5074431;28;20025;-60
2023/04/03 08:13:41;;;;;;;2.30;1.52;;;;;;;;;;5074158;28;20039;-60
2023/04/03 08:16:08;;;;;;;2.03;1.30;;;;;;;;;;5074844;28;20382;-60
2023/04/03 08:18:34;;;;;;;2.53;1.58;;;;;;;;;;5074165;28;20046;-60
2023/04/03 08:21:00;;;;;;;2.50;1.38;;;;;;;;;;5074180;28;20029;-60
2023/04/03 08:23:26;;;;;;;3.55;0.80;;;;;;;;;;5074175;28;20024;-60
2023/04/03 08:25:52;;;;;;;3.72;1.60;;;;;;;;;;5074309;28;20025;-60
2023/04/03 08:28:18;;;;;;;3.33;1.88;;;;;;;;;;5074816;28;20118;-60
2023/04/03 08:30:45;;;;;;;2.85;1.42;;;;;;;;;;5074580;28;20059;-60
2023/04/03 08:33:11;;;;;;;1.98;1.58;;;;;;;;;;5073979;28;20536;-60
2023/04/03 08:35:41;;;;;;;4.55;1.35;;;;;;;;;;5074539;28;20021;-61
2023/04/03 08:38:07;;;;;;;2.17;1.60;;;;;;;;;;5073976;28;20036;-61
2023/04/03 08:40:33;;;;;;;3.05;2.05;;;;;;;;;;5074571;28;20035;-60
2023/04/03 08:43:14;;;;;;;2.78;1.42;;;;;;;;;;5074476;28;20031;-61
2023/04/03 08:45:45;;;;;;;3.03;1.60;;;;;;;;;;5074781;28;20024;-61
2023/04/03 08:48:13;;;;;;;2.50;1.88;;;;;;;;;;5073697;28;20478;-61
2023/04/03 08:50:41;;;;;;;2.55;1.63;;;;;;;;;;5073856;28;20021;-58
2023/04/03 08:53:14;;;;;;;5.25;1.92;;;;;;;;;;5073769;28;20024;-58
2023/04/03 08:55:43;;;;;;;2.25;1.70;;;;;;;;;;5074013;28;20036;-58
2023/04/03 08:58:18;;;;;;;1.67;1.10;;;;;;;;;;5073758;28;20032;-60
2023/04/03 09:00:46;;;;;;;1.70;1.02;;;;;;;;;;5073935;28;20043;-61
2023/04/03 09:03:14;;;;;;;2.67;1.58;;;;;;;;;;5073689;28;20024;-58
2023/04/03 09:05:45;;;;;;;2.03;1.50;;;;;;;;;;5074414;28;20021;-59
2023/04/03 09:08:11;;;;;;;;;;;;;;;;;;5074032;28;20036;-59
2023/04/03 09:10:38;;;;;;;2.40;1.52;;;;;;;;;;5073467;28;19905;-59
2023/04/03 09:13:08;;;;;;;2.20;1.42;;;;;;;;;;5074029;28;20024;-59
2023/04/03 09:15:35;;;;;;;4.75;1.95;;;;;;;;;;5073788;28;20052;-59
2023/04/03 09:18:01;;;;;;;3.35;1.98;;;;;;;;;;5073634;28;20055;-60
2023/04/03 09:20:40;;;;;;;1.98;1.25;;;;;;;;;;5073991;28;20056;-59
2023/04/03 09:23:35;;;;;;;3.28;1.80;;;;;;;;;;5074035;28;20029;-59
2023/04/03 09:26:04;;;;;;;1.83;1.30;;;;;;;;;;5064586;28;20055;-59
2023/04/03 09:28:32;;;;;;;2.13;1.15;;;;;;;;;;5073115;28;20379;-59
2023/04/03 09:31:00;;;;;;;2.50;1.45;;;;;;;;;;5073341;28;20412;-59
2023/04/03 09:33:27;;;;;;;3.63;1.42;;;;;;;;;;5073406;28;20374;-59
2023/04/03 09:35:53;;;;;;;6.57;2.15;;;;;;;;;;5073728;28;20047;-59
2023/04/03 09:38:20;;;;;;;2.33;1.90;;;;;;;;;;5075880;28;20466;-59
2023/04/03 09:41:13;;;;;;;2.28;1.20;;;;;;;;;;5077143;28;20032;-59
2023/04/03 09:43:39;;;;;;;2.15;1.70;;;;;;;;;;5075278;28;20056;-59
2023/04/03 09:46:23;;;;;;;2.20;1.50;;;;;;;;;;5077720;28;20086;-59
2023/04/03 09:48:56;;;;;;;3.50;1.35;;;;;;;;;;5077300;28;20110;-59
2023/04/03 09:51:27;;;;;;;2.75;1.88;;;;;;;;;;5077324;28;20040;-59
2023/04/03 09:53:53;;;;;;;4.60;1.70;;;;;;;;;;5077001;28;20025;-59
2023/04/03 09:56:21;;;;;;;2.92;1.75;;;;;;;;;;5077509;28;20020;-59
2023/04/03 09:59:10;;;;;;;4.70;2.05;;;;;;;;;;5076911;28;20085;-59
2023/04/03 10:01:38;;;;;;;2.03;1.17;;;;;;;;;;5071602;28;20086;-59
2023/04/03 10:04:17;;;;;;;1.27;0.98;;;;;;;;;;5076733;28;20028;-60
2023/04/03 10:06:53;;;;;;;2.80;1.85;;;;;;;;;;5077064;28;20044;-59
2023/04/03 10:09:23;;;;;;;3.58;1.92;;;;;;;;;;5077217;28;20047;-59
2023/04/03 10:12:06;;;;;;;1.92;1.35;;;;;;;;;;5077481;28;20481;-59
2023/04/03 10:14:40;;;;;;;1.67;1.15;;;;;;;;;;5076667;28;20044;-59
2023/04/03 10:17:09;;;;;;;2.42;1.83;;;;;;;;;;5076420;28;20025;-60
2023/04/03 10:19:38;;;;;;;1.25;0.75;;;;;;;;;;5076855;28;20343;-59
2023/04/03 10:22:09;;;;;;;1.83;1.35;;;;;;;;;;5076682;28;20025;-59
2023/04/03 10:24:39;;;;;;;2.92;1.08;;;;;;;;;;5076466;28;20024;-59
2023/04/03 10:27:08;;;;;;;5.28;1.70;;;;;;;;;;5077253;28;20078;-59
2023/04/03 10:29:53;;;;;;;3.00;1.45;;;;;;;;;;5076571;28;20025;-59
2023/04/03 10:32:41;;;;;;;4.05;1.77;;;;;;;;;;5076248;28;20074;-59
2023/04/03 10:35:13;;;;;;;1.77;1.23;;;;;;;;;;5076010;28;20436;-59
2023/04/03 10:37:50;;;;;;;1.90;1.27;;;;;;;;;;5075879;28;20471;-59
2023/04/03 10:40:21;;;;;;;1.90;1.30;;;;;;;;;;5077188;28;20059;-60
2023/04/03 10:42:57;;;;;;;2.33;1.35;;;;;;;;;;5076293;28;20039;-60
2023/04/03 10:45:29;;;;;;;3.78;1.40;;;;;;;;;;5076486;28;20031;-60
2023/04/03 10:47:55;;;;;;;2.45;1.58;;;;;;;;;;5075811;28;20032;-61
2023/04/03 10:50:37;;;;;;;1.73;1.10;;;;;;;;;;5076545;28;20025;-61
2023/04/03 10:53:21;;;;;;;2.53;1.45;;;;;;;;;;5076042;28;20098;-60
2023/04/03 10:55:55;;;;;;;2.20;1.27;;;;;;;;;;5076342;28;20448;-61
2023/04/03 10:58:41;;;;;;;1.95;1.40;;;;;;;;;;5076469;28;20028;-61
2023/04/03 11:01:09;;;;;;;1.33;0.80;;;;;;;;;;5075712;28;20016;-61
2023/04/03 11:03:46;;;;;;;1.40;0.90;;;;;;;;;;5075630;28;20111;-61
2023/04/03 11:06:13;;;;;;;2.63;1.23;;;;;;;;;;5076189;28;20431;-61
2023/04/03 11:08:44;;;;;;;4.03;1.65;;;;;;;;;;5076152;28;20036;-61
2023/04/03 11:11:10;;;;;;;;;;;;;;;;;;5076667;28;20466;-60
2023/04/03 11:13:40;;;;;;;2.15;1.40;;;;;;;;;;5075338;28;19911;-61
2023/04/03 11:16:07;;;;;;;2.55;0.88;;;;;;;;;;5076093;28;20028;-61
2023/04/03 11:18:38;;;;;;;4.05;1.42;;;;;;;;;;5075936;28;20028;-61
2023/04/03 11:21:24;;;;;;;2.22;1.30;;;;;;;;;;5076031;28;20036;-61
2023/04/03 11:23:51;;;;;;;1.40;0.70;;;;;;;;;;5068044;28;20043;-61
2023/04/03 11:26:21;;;;;;;2.92;1.10;;;;;;;;;;5075634;28;20020;-61
2023/04/03 11:28:52;;;;;;;1.67;1.25;;;;;;;;;;5075164;28;20032;-58
2023/04/03 11:31:36;;;;;;;2.17;1.25;;;;;;;;;;5075609;28;20024;-58
2023/04/03 11:34:17;;;;;;;3.10;1.10;;;;;;;;;;5075116;28;20021;-58
2023/04/03 11:36:48;;;;;;;1.50;0.98;;;;;;;;;;5075085;28;20036;-58
2023/04/03 11:39:21;;;;;;;1.85;1.15;;;;;;;;;;5074994;28;20031;-58
2023/04/03 11:41:47;;;;;;;2.80;1.25;;;;;;;;;;5075209;28;20027;-58
2023/04/03 11:44:32;;;;;;;3.50;1.00;;;;;;;;;;5074948;28;20028;-58
2023/04/03 11:47:02;;;;;;;2.15;1.33;;;;;;;;;;5074937;28;20035;-58
2023/04/03 11:49:46;;;;;;;1.77;1.08;;;;;;;;;;5075119;28;20041;-58
2023/04/03 11:52:12;;;;;;;2.15;1.33;;;;;;;;;;5074872;28;20039;-58
2023/04/03 11:54:38;;;;;;;1.60;0.85;;;;;;;;;;5074391;28;20024;-58
2023/04/03 11:57:23;;;;;;;1.60;0.90;;;;;;;;;;5074995;28;20035;-59
2023/04/03 11:59:49;;;;;;;2.15;1.40;;;;;;;;;;5074277;28;20032;-59
2023/04/03 12:02:38;;;;;;;3.63;0.95;;;;;;;;;;5074500;28;20112;-59
2023/04/03 12:05:23;;;;;;;4.85;1.77;;;;;;;;;;5069391;28;20374;-59
2023/04/03 12:08:08;;;;;;;1.67;0.93;;;;;;;;;;5074382;28;20458;-59
2023/04/03 12:10:34;;;;;;;2.17;1.02;;;;;;;;;;5074352;28;20106;-59
2023/04/03 12:13:03;;;;;;;1.55;0.90;;;;;;;;;;5074232;28;20020;-59
2023/04/03 12:15:42;;;;;;;1.27;0.98;;;;;;;;;;5075014;28;20055;-59
2023/04/03 12:18:27;;;;;;;2.00;1.13;;;;;;;;;;5074266;28;20035;-59
2023/04/03 12:20:54;;;;;;;1.45;1.33;;;;;;;;;;5074114;28;20044;-59
2023/04/03 12:23:43;;;;;;;3.95;1.42;;;;;;;;;;5074194;28;20025;-59
2023/04/03 12:26:15;;;;;;;4.45;1.60;;;;;;;;;;5073813;28;20032;-59
2023/04/03 12:28:41;;;;;;;1.38;0.90;;;;;;;;;;5073863;28;20117;-59
2023/04/03 12:31:10;;;;;;;1.17;0.68;;;;;;;;;;5074040;28;20033;-59
2023/04/03 12:33:59;;;;;;;1.77;1.08;;;;;;;;;;5073986;28;20025;-59
2023/04/03 12:36:35;;;;;;;1.85;1.10;;;;;;;;;;5073535;28;20086;-59
2023/04/03 12:39:19;;;;;;;2.80;1.58;;;;;;;;;;5073976;28;20091;-59
2023/04/03 12:41:51;;;;;;;2.70;1.60;;;;;;;;;;5073740;28;20158;-59
2023/04/03 12:44:20;;;;;;;1.77;1.15;;;;;;;;;;5073805;28;20056;-56
2023/04/03 12:46:47;;;;;;;1.95;1.05;;;;;;;;;;5074298;28;20017;-56
2023/04/03 12:49:25;;;;;;;2.13;1.20;;;;;;;;;;5073775;28;20032;-57
2023/04/03 12:51:51;;;;;;;1.60;0.95;;;;;;;;;;5074492;28;20032;-56
2023/04/03 12:54:20;;;;;;;9.30;1.67;;;;;;;;;;5073642;28;20077;-56
2023/04/03 12:56:46;;;;;;;2.58;1.05;;;;;;;;;;5074407;28;20024;-57
2023/04/03 12:59:17;;;;;;;1.70;0.77;;;;;;;;;;5074273;28;20064;-57
2023/04/03 13:01:42;;;;;;;;;;;;;;;;;;5074013;28;20031;-56
2023/04/03 13:04:11;;;;;;;2.42;1.23;;;;;;;;;;5073346;28;19995;-57
2023/04/03 13:06:42;;;;;;;1.88;1.05;;;;;;;;;;5074476;28;20021;-56
2023/04/03 13:09:21;;;;;;;1.35;0.90;;;;;;;;;;5073842;28;20086;-57
2023/04/03 13:11:47;;;;;;;2.17;0.52;;;;;;;;;;5074143;28;20028;-57
2023/04/03 13:14:17;;;;;;;2.22;0.95;;;;;;;;;;5077354;28;20417;-57
2023/04/03 13:16:52;;;;;;;3.05;1.50;;;;;;;;;;5077759;28;20401;-57
2023/04/03 13:19:19;;;;;;;2.65;1.25;;;;;;;;;;5078168;28;20020;-56
2023/04/03 13:21:46;;;;;;;1.98;0.95;;;;;;;;;;5077659;28;20412;-57
2023/04/03 13:24:12;;;;;;;1.95;1.15;;;;;;;;;;5077540;28;20025;-56
2023/04/03 13:26:39;;;;;;;1.92;1.20;;;;;;;;;;5077859;28;20520;-56
2023/04/03 13:29:18;;;;;;;2.72;1.20;;;;;;;;;;5077359;28;20382;-56
2023/04/03 13:31:44;;;;;;;4.10;2.20;;;;;;;;;;5077722;28;20032;-56
2023/04/03 13:34:12;;;;;;;2.95;0.70;;;;;;;;;;5075967;28;20021;-56
2023/04/03 13:36:44;;;;;;;2.63;1.17;;;;;;;;;;5077924;28;20036;-55
2023/04/03 13:39:10;;;;;;;1.27;0.57;;;;;;;;;;5077673;28;20081;-53
2023/04/03 13:41:38;;;;;;;1.88;1.10;;;;;;;;;;5077226;28;20370;-55
2023/04/03 13:44:22;;;;;;;1.55;1.05;;;;;;;;;;5077359;28;20031;-57
2023/04/03 13:46:49;;;;;;;1.67;1.05;;;;;;;;;;5077532;28;20039;-56
2023/04/03 13:49:20;;;;;;;2.13;1.15;;;;;;;;;;5077004;28;20131;-57
2023/04/03 13:51:47;;;;;;;2.33;1.38;;;;;;;;;;5077074;28;20103;-56
2023/04/03 13:54:22;;;;;;;2.33;1.27;;;;;;;;;;5076931;28;20044;-52
2023/04/03 13:56:52;;;;;;;2.83;1.35;;;;;;;;;;5077338;28;20074;-57
2023/04/03 13:59:18;;;;;;;;;;;;;;;;;;5077602;28;20028;-55
2023/04/03 14:01:53;;;;;;;2.47;1.23;;;;;;;;;;5077213;28;19950;-54
2023/04/03 14:04:25;;;;;;;2.10;1.25;;;;;;;;;;5076703;28;20020;-56
2023/04/03 14:06:52;;;;;;;3.20;1.60;;;;;;;;;;5076808;28;20059;-53
2023/04/03 14:09:19;;;;;;;1.70;0.95;;;;;;;;;;5077009;28;20447;-57
2023/04/03 14:11:46;;;;;;;2.08;1.00;;;;;;;;;;5076323;28;20025;-57
2023/04/03 14:14:20;;;;;;;1.75;1.05;;;;;;;;;;5076892;28;20449;-53
2023/04/03 14:16:48;;;;;;;2.35;1.25;;;;;;;;;;5076646;28;20028;-57
2023/04/03 14:19:19;;;;;;;2.35;1.63;;;;;;;;;;5076536;28;20082;-57
2023/04/03 14:21:45;;;;;;;;;;;;;;;;;;5076788;28;20028;-54
2023/04/03 14:24:11;;;;;;;1.67;1.02;;;;;;;;;;5075873;28;19927;-56
2023/04/03 14:26:37;;;;;;;2.88;1.33;;;;;;;;;;5076391;28;20056;-57
2023/04/03 14:29:03;;;;;;;3.92;1.58;;;;;;;;;;5076760;28;20032;-57
2023/04/03 14:31:29;;;;;;;3.10;1.33;;;;;;;;;;5076627;28;20070;-57
2023/04/03 14:33:55;;;;;;;1.58;1.05;;;;;;;;;;5076785;28;20070;-57
2023/04/03 14:36:24;;;;;;;1.20;0.73;;;;;;;;;;5076817;28;20454;-57
2023/04/03 14:38:51;;;;;;;1.55;0.90;;;;;;;;;;5076121;28;20033;-57
2023/04/03 14:41:18;;;;;;;5.18;1.60;;;;;;;;;;5076954;28;20044;-57
2023/04/03 14:43:45;;;;;;;2.67;1.13;;;;;;;;;;5076615;28;20450;-57
2023/04/03 14:46:24;;;;;;;3.13;0.95;;;;;;;;;;5075426;28;20060;-56
2023/04/03 14:48:50;;;;;;;2.40;1.50;;;;;;;;;;5075910;28;20033;-57
2023/04/03 14:51:16;;;;;;;2.22;1.52;;;;;;;;;;5076206;28;20073;-58
2023/04/03 14:53:44;;;;;;;3.20;1.60;;;;;;;;;;5075852;28;20028;-59
2023/04/03 14:56:15;;;;;;;2.42;1.50;;;;;;;;;;5075785;28;20491;-57